sensor_id;sensor_type;location;lat;lon;timestamp;pressure;altitude;pressure_sealevel;temperature;humidity
48200;BME280;33990;44.602;10.976;2023-06-24T00:00:00;101081.84;;;27.93;59.34
48200;BME280;33990;44.602;10.976;2023-06-24T00:02:35;101083.16;;;27.97;59.14
48200;BME280;33990;44.602;10.976;2023-06-24T00:05:05;101079.22;;;27.99;59.25
48200;BME280;33990;44.602;10.976;2023-06-24T00:07:33;101080.72;;;28.02;59.27
48200;BME280;33990;44.602;10.976;2023-06-24T00:10:14;101076.13;;;28.02;58.83
48200;BME280;33990;44.602;10.976;2023-06-24T00:12:43;101088.34;;;28.06;59.10
48200;BME280;33990;44.602;10.976;2023-06-24T00:15:11;101084.59;;;28.07;58.86
48200;BME280;33990;44.602;10.976;2023-06-24T00:17:39;101088.81;;;28.10;58.50
48200;BME280;33990;44.602;10.976;2023-06-24T00:20:07;101092.38;;;28.10;58.41
48200;BME280;33990;44.602;10.976;2023-06-24T00:22:38;101093.91;;;28.13;58.71
48200;BME280;33990;44.602;10.976;2023-06-24T00:25:11;101080.28;;;28.13;58.50
48200;BME280;33990;44.602;10.976;2023-06-24T00:27:38;101079.25;;;28.14;58.31
48200;BME280;33990;44.602;10.976;2023-06-24T00:30:06;101079.09;;;28.16;58.70
48200;BME280;33990;44.602;10.976;2023-06-24T00:32:34;101076.38;;;28.16;58.70
48200;BME280;33990;44.602;10.976;2023-06-24T00:35:03;101081.63;;;28.17;58.31
48200;BME280;33990;44.602;10.976;2023-06-24T00:37:31;101073.47;;;28.17;58.48
48200;BME280;33990;44.602;10.976;2023-06-24T00:39:58;101077.03;;;28.18;58.51
48200;BME280;33990;44.602;10.976;2023-06-24T00:42:26;101073.09;;;28.20;58.61
48200;BME280;33990;44.602;10.976;2023-06-24T00:44:54;101067.66;;;28.20;58.49
48200;BME280;33990;44.602;10.976;2023-06-24T00:47:23;101062.38;;;28.19;58.26
48200;BME280;33990;44.602;10.976;2023-06-24T00:49:51;101064.09;;;28.20;58.12
48200;BME280;33990;44.602;10.976;2023-06-24T00:52:18;101055.91;;;28.20;58.20
48200;BME280;33990;44.602;10.976;2023-06-24T00:54:46;101060.97;;;28.23;58.58
48200;BME280;33990;44.602;10.976;2023-06-24T00:57:13;101062.84;;;28.22;58.17
48200;BME280;33990;44.602;10.976;2023-06-24T00:59:42;101067.44;;;28.22;58.53
48200;BME280;33990;44.602;10.976;2023-06-24T01:02:11;101060.97;;;28.23;58.38
48200;BME280;33990;44.602;10.976;2023-06-24T01:04:39;101064.53;;;28.23;57.97
48200;BME280;33990;44.602;10.976;2023-06-24T01:07:07;101061.81;;;28.23;58.31
48200;BME280;33990;44.602;10.976;2023-06-24T01:09:36;101057.25;;;28.24;58.46
48200;BME280;33990;44.602;10.976;2023-06-24T01:12:04;101053.47;;;28.25;58.07
48200;BME280;33990;44.602;10.976;2023-06-24T01:14:32;101055.34;;;28.24;58.17
48200;BME280;33990;44.602;10.976;2023-06-24T01:17:15;101058.09;;;28.24;57.62
48200;BME280;33990;44.602;10.976;2023-06-24T01:31:07;101066.25;;;28.24;57.32
48200;BME280;33990;44.602;10.976;2023-06-24T01:33:58;101071.50;;;28.26;57.53
48200;BME280;33990;44.602;10.976;2023-06-24T01:36:29;101070.66;;;28.25;57.38
48200;BME280;33990;44.602;10.976;2023-06-24T01:39:02;101070.84;;;28.24;57.42
48200;BME280;33990;44.602;10.976;2023-06-24T01:41:34;101065.41;;;28.24;56.81
48200;BME280;33990;44.602;10.976;2023-06-24T01:44:03;101075.25;;;28.25;57.05
48200;BME280;33990;44.602;10.976;2023-06-24T01:46:31;101076.09;;;28.25;56.88
48200;BME280;33990;44.602;10.976;2023-06-24T01:49:01;101089.72;;;28.25;56.84
48200;BME280;33990;44.602;10.976;2023-06-24T01:51:32;101086.16;;;28.25;56.98
48200;BME280;33990;44.602;10.976;2023-06-24T01:54:04;101091.41;;;28.26;56.88
48200;BME280;33990;44.602;10.976;2023-06-24T01:56:33;101087.00;;;28.25;56.97
48200;BME280;33990;44.602;10.976;2023-06-24T01:59:04;101091.41;;;28.26;56.88
48200;BME280;33990;44.602;10.976;2023-06-24T02:01:33;101096.00;;;28.26;56.77
48200;BME280;33990;44.602;10.976;2023-06-24T02:04:03;101094.97;;;28.27;56.73
48200;BME280;33990;44.602;10.976;2023-06-24T02:06:32;101101.44;;;28.26;57.13
48200;BME280;33990;44.602;10.976;2023-06-24T02:09:01;101098.53;;;28.27;56.80
48200;BME280;33990;44.602;10.976;2023-06-24T02:11:31;101109.41;;;28.27;57.01
48200;BME280;33990;44.602;10.976;2023-06-24T02:14:02;101115.91;;;28.26;56.87
48200;BME280;33990;44.602;10.976;2023-06-24T02:16:32;101104.16;;;28.26;57.03
48200;BME280;33990;44.602;10.976;2023-06-24T02:19:00;101106.69;;;28.27;57.21
48200;BME280;33990;44.602;10.976;2023-06-24T02:21:29;101109.41;;;28.27;56.66
48200;BME280;33990;44.602;10.976;2023-06-24T02:23:57;101105.00;;;28.26;56.92
48200;BME280;33990;44.602;10.976;2023-06-24T02:26:26;101114.00;;;28.27;57.00
48200;BME280;33990;44.602;10.976;2023-06-24T02:28:54;101104.16;;;28.26;57.01
48200;BME280;33990;44.602;10.976;2023-06-24T02:31:21;101106.88;;;28.26;56.57
48200;BME280;33990;44.602;10.976;2023-06-24T02:33:49;101116.75;;;28.27;57.07
48200;BME280;33990;44.602;10.976;2023-06-24T02:36:19;101111.28;;;28.27;56.95
48200;BME280;33990;44.602;10.976;2023-06-24T02:38:46;101124.06;;;28.26;56.82
48200;BME280;33990;44.602;10.976;2023-06-24T02:41:13;101115.91;;;28.26;56.95
48200;BME280;33990;44.602;10.976;2023-06-24T02:43:42;101121.34;;;28.26;56.71
48200;BME280;33990;44.602;10.976;2023-06-24T02:46:10;101124.06;;;28.26;56.74
48200;BME280;33990;44.602;10.976;2023-06-24T02:48:39;101127.63;;;28.27;56.82
48200;BME280;33990;44.602;10.976;2023-06-24T02:51:08;101122.19;;;28.27;56.89
48200;BME280;33990;44.602;10.976;2023-06-24T02:53:38;101125.75;;;28.27;56.77
48200;BME280;33990;44.602;10.976;2023-06-24T02:56:08;101134.97;;;28.26;56.53
48200;BME280;33990;44.602;10.976;2023-06-24T02:58:38;101136.00;;;28.25;56.38
48200;BME280;33990;44.602;10.976;2023-06-24T03:01:17;101151.00;;;28.21;55.24
48200;BME280;33990;44.602;10.976;2023-06-24T03:03:47;101146.28;;;28.15;55.15
48200;BME280;33990;44.602;10.976;2023-06-24T03:06:18;101147.19;;;28.07;55.08
48200;BME280;33990;44.602;10.976;2023-06-24T03:08:47;101141.44;;;28.02;54.83
48200;BME280;33990;44.602;10.976;2023-06-24T03:11:16;101154.41;;;28.00;54.27
48200;BME280;33990;44.602;10.976;2023-06-24T03:13:44;101156.44;;;27.98;54.18
48200;BME280;33990;44.602;10.976;2023-06-24T03:16:15;101162.25;;;27.95;54.05
48200;BME280;33990;44.602;10.976;2023-06-24T03:18:56;101156.22;;;27.85;54.31
48200;BME280;33990;44.602;10.976;2023-06-24T03:21:23;101164.44;;;27.77;54.55
48200;BME280;33990;44.602;10.976;2023-06-24T03:24:04;101162.56;;;27.69;54.46
48200;BME280;33990;44.602;10.976;2023-06-24T03:26:36;101165.47;;;27.68;54.87
48200;BME280;33990;44.602;10.976;2023-06-24T03:29:06;101176.34;;;27.68;54.51
48200;BME280;33990;44.602;10.976;2023-06-24T03:31:42;101176.34;;;27.68;54.89
48200;BME280;33990;44.602;10.976;2023-06-24T03:34:15;101169.19;;;27.67;54.76
48200;BME280;33990;44.602;10.976;2023-06-24T03:36:44;101191.84;;;27.67;55.00
48200;BME280;33990;44.602;10.976;2023-06-24T03:39:14;101184.53;;;27.68;54.84
48200;BME280;33990;44.602;10.976;2023-06-24T03:41:42;101186.22;;;27.69;54.93
48200;BME280;33990;44.602;10.976;2023-06-24T03:44:11;101180.56;;;27.70;55.02
48200;BME280;33990;44.602;10.976;2023-06-24T03:46:39;101185.16;;;27.70;55.02
48200;BME280;33990;44.602;10.976;2023-06-24T03:49:08;101187.25;;;27.68;55.03
48200;BME280;33990;44.602;10.976;2023-06-24T03:51:36;101193.53;;;27.68;54.61
48200;BME280;33990;44.602;10.976;2023-06-24T03:54:03;101202.72;;;27.67;54.76
48200;BME280;33990;44.602;10.976;2023-06-24T03:56:30;101205.25;;;27.69;54.91
48200;BME280;33990;44.602;10.976;2023-06-24T03:58:58;101205.25;;;27.69;54.57
48200;BME280;33990;44.602;10.976;2023-06-24T04:01:25;101207.97;;;27.69;55.07
48200;BME280;33990;44.602;10.976;2023-06-24T04:03:53;101205.91;;;27.71;54.88
48200;BME280;33990;44.602;10.976;2023-06-24T04:06:20;101217.66;;;27.71;54.63
48200;BME280;33990;44.602;10.976;2023-06-24T04:08:48;101220.38;;;27.71;54.61
48200;BME280;33990;44.602;10.976;2023-06-24T04:11:16;101228.34;;;27.73;54.91
48200;BME280;33990;44.602;10.976;2023-06-24T04:13:46;101221.22;;;27.72;54.73
48200;BME280;33990;44.602;10.976;2023-06-24T04:16:16;101222.06;;;27.72;54.87
48200;BME280;33990;44.602;10.976;2023-06-24T04:18:43;101225.63;;;27.73;54.79
48200;BME280;33990;44.602;10.976;2023-06-24T04:21:11;101233.78;;;27.73;54.47
48200;BME280;33990;44.602;10.976;2023-06-24T04:23:38;101238.53;;;27.71;54.74
48200;BME280;33990;44.602;10.976;2023-06-24T04:26:05;101237.69;;;27.70;54.30
48200;BME280;33990;44.602;10.976;2023-06-24T04:28:33;101234.13;;;27.70;54.21
48200;BME280;33990;44.602;10.976;2023-06-24T04:31:00;101242.97;;;27.72;54.24
48200;BME280;33990;44.602;10.976;2023-06-24T04:33:28;101236.69;;;27.71;54.43
48200;BME280;33990;44.602;10.976;2023-06-24T04:35:56;101236.69;;;27.71;54.50
48200;BME280;33990;44.602;10.976;2023-06-24T04:38:24;101239.22;;;27.73;54.27
48200;BME280;33990;44.602;10.976;2023-06-24T04:40:52;101242.13;;;27.71;54.44
48200;BME280;33990;44.602;10.976;2023-06-24T04:43:20;101242.13;;;27.71;54.42
48200;BME280;33990;44.602;10.976;2023-06-24T04:45:48;101240.59;;;27.69;54.62
48200;BME280;33990;44.602;10.976;2023-06-24T04:48:16;101237.19;;;27.67;54.13
48200;BME280;33990;44.602;10.976;2023-06-24T04:50:44;101236.53;;;27.65;53.98
48200;BME280;33990;44.602;10.976;2023-06-24T04:53:12;101242.00;;;27.65;54.12
48200;BME280;33990;44.602;10.976;2023-06-24T04:55:40;101246.41;;;27.66;54.51
48200;BME280;33990;44.602;10.976;2023-06-24T04:58:07;101242.00;;;27.65;54.44
48200;BME280;33990;44.602;10.976;2023-06-24T05:00:34;101240.31;;;27.64;53.89
48200;BME280;33990;44.602;10.976;2023-06-24T05:03:02;101236.53;;;27.65;54.08
48200;BME280;33990;44.602;10.976;2023-06-24T05:05:29;101237.19;;;27.67;53.68
48200;BME280;33990;44.602;10.976;2023-06-24T05:08:00;101239.91;;;27.67;53.11
48200;BME280;33990;44.602;10.976;2023-06-24T05:10:27;101241.81;;;27.66;52.97
48200;BME280;33990;44.602;10.976;2023-06-24T05:12:54;101240.97;;;27.66;53.23
48200;BME280;33990;44.602;10.976;2023-06-24T05:15:22;101240.09;;;27.65;52.83
48200;BME280;33990;44.602;10.976;2023-06-24T05:17:49;101244.72;;;27.65;52.87
48200;BME280;33990;44.602;10.976;2023-06-24T05:20:19;101244.72;;;27.65;53.04
48200;BME280;33990;44.602;10.976;2023-06-24T05:22:47;101243.19;;;27.62;52.92
48200;BME280;33990;44.602;10.976;2023-06-24T05:25:14;101238.59;;;27.63;52.99
48200;BME280;33990;44.602;10.976;2023-06-24T05:27:42;101248.63;;;27.62;53.44
48200;BME280;33990;44.602;10.976;2023-06-24T05:30:11;101252.38;;;27.61;53.28
48200;BME280;33990;44.602;10.976;2023-06-24T05:32:40;101256.13;;;27.60;53.04
48200;BME280;33990;44.602;10.976;2023-06-24T05:35:08;101259.69;;;27.60;53.20
48200;BME280;33990;44.602;10.976;2023-06-24T05:37:35;101254.78;;;27.56;52.97
48200;BME280;33990;44.602;10.976;2023-06-24T05:40:03;101264.84;;;27.47;53.24
48200;BME280;33990;44.602;10.976;2023-06-24T05:42:32;101257.56;;;27.40;53.21
48200;BME280;33990;44.602;10.976;2023-06-24T05:45:01;101269.63;;;27.37;53.48
48200;BME280;33990;44.602;10.976;2023-06-24T05:47:28;101274.22;;;27.36;53.51
48200;BME280;33990;44.602;10.976;2023-06-24T05:49:55;101277.78;;;27.37;53.53
48200;BME280;33990;44.602;10.976;2023-06-24T05:52:23;101284.91;;;27.38;53.64
48200;BME280;33990;44.602;10.976;2023-06-24T05:54:50;101291.03;;;27.40;53.95
48200;BME280;33990;44.602;10.976;2023-06-24T05:57:18;101285.41;;;27.42;53.64
48200;BME280;33990;44.602;10.976;2023-06-24T05:59:45;101287.97;;;27.43;53.89
48200;BME280;33990;44.602;10.976;2023-06-24T06:02:12;101292.72;;;27.41;53.84
48200;BME280;33990;44.602;10.976;2023-06-24T06:04:40;101298.34;;;27.40;53.93
48200;BME280;33990;44.602;10.976;2023-06-24T06:07:07;101306.16;;;27.34;53.70
48200;BME280;33990;44.602;10.976;2023-06-24T06:09:35;101308.56;;;27.29;53.45
48200;BME280;33990;44.602;10.976;2023-06-24T06:12:02;101310.75;;;27.26;53.60
48200;BME280;33990;44.602;10.976;2023-06-24T06:14:30;101313.84;;;27.23;53.46
48200;BME280;33990;44.602;10.976;2023-06-24T06:16:57;101322.00;;;27.23;53.67
48200;BME280;33990;44.602;10.976;2023-06-24T06:19:25;101320.13;;;27.23;53.70
48200;BME280;33990;44.602;10.976;2023-06-24T06:21:52;101320.63;;;27.27;53.77
48200;BME280;33990;44.602;10.976;2023-06-24T06:24:19;101320.13;;;27.31;53.66
48200;BME280;33990;44.602;10.976;2023-06-24T06:26:47;101325.03;;;27.36;53.78
48200;BME280;33990;44.602;10.976;2023-06-24T06:29:14;101326.53;;;27.39;53.96
48200;BME280;33990;44.602;10.976;2023-06-24T06:31:41;101326.19;;;27.42;53.80
48200;BME280;33990;44.602;10.976;2023-06-24T06:34:09;101334.84;;;27.45;54.08
48200;BME280;33990;44.602;10.976;2023-06-24T06:36:36;101337.41;;;27.47;54.31
48200;BME280;33990;44.602;10.976;2023-06-24T06:39:03;101343.34;;;27.50;54.39
48200;BME280;33990;44.602;10.976;2023-06-24T06:41:31;101343.19;;;27.52;53.98
48200;BME280;33990;44.602;10.976;2023-06-24T06:43:58;101343.00;;;27.53;54.18
48200;BME280;33990;44.602;10.976;2023-06-24T06:46:27;101341.97;;;27.54;54.18
48200;BME280;33990;44.602;10.976;2023-06-24T06:48:55;101339.25;;;27.54;54.15
48200;BME280;33990;44.602;10.976;2023-06-24T06:51:22;101342.84;;;27.55;54.12
48200;BME280;33990;44.602;10.976;2023-06-24T06:53:51;101341.81;;;27.56;54.14
48200;BME280;33990;44.602;10.976;2023-06-24T06:56:25;101347.91;;;27.58;53.60
48200;BME280;33990;44.602;10.976;2023-06-24T06:58:53;101336.38;;;27.56;53.11
48200;BME280;33990;44.602;10.976;2023-06-24T07:01:20;101333.81;;;27.54;52.95
48200;BME280;33990;44.602;10.976;2023-06-24T07:03:49;101337.56;;;27.53;53.09
48200;BME280;33990;44.602;10.976;2023-06-24T07:06:19;101324.16;;;27.52;53.19
48200;BME280;33990;44.602;10.976;2023-06-24T07:08:47;101331.28;;;27.53;53.08
48200;BME280;33990;44.602;10.976;2023-06-24T07:11:14;101326.16;;;27.50;52.96
48200;BME280;33990;44.602;10.976;2023-06-24T07:13:41;101326.38;;;27.48;53.27
48200;BME280;33990;44.602;10.976;2023-06-24T07:16:09;101330.09;;;27.47;52.47
48200;BME280;33990;44.602;10.976;2023-06-24T07:18:36;101324.81;;;27.46;52.12
48200;BME280;33990;44.602;10.976;2023-06-24T07:21:03;101323.97;;;27.45;51.56
48200;BME280;33990;44.602;10.976;2023-06-24T07:23:31;101322.94;;;27.46;51.59
48200;BME280;33990;44.602;10.976;2023-06-24T07:25:58;101326.53;;;27.47;51.19
48200;BME280;33990;44.602;10.976;2023-06-24T07:28:30;101323.97;;;27.45;50.97
48200;BME280;33990;44.602;10.976;2023-06-24T07:30:57;101327.72;;;27.44;50.15
48200;BME280;33990;44.602;10.976;2023-06-24T07:33:24;101325.84;;;27.45;50.38
48200;BME280;33990;44.602;10.976;2023-06-24T07:35:52;101331.09;;;27.46;50.20
48200;BME280;33990;44.602;10.976;2023-06-24T07:38:19;101331.97;;;27.47;49.40
48200;BME280;33990;44.602;10.976;2023-06-24T07:40:47;101337.56;;;27.45;49.32
48200;BME280;33990;44.602;10.976;2023-06-24T07:43:15;101334.84;;;27.45;48.90
48200;BME280;33990;44.602;10.976;2023-06-24T07:45:43;101332.13;;;27.45;48.90
48200;BME280;33990;44.602;10.976;2023-06-24T07:48:10;101332.31;;;27.44;49.11
48200;BME280;33990;44.602;10.976;2023-06-24T07:50:38;101326.69;;;27.45;48.92
48200;BME280;33990;44.602;10.976;2023-06-24T07:53:06;101338.59;;;27.44;48.95
48200;BME280;33990;44.602;10.976;2023-06-24T07:55:33;101336.03;;;27.43;49.07
48200;BME280;33990;44.602;10.976;2023-06-24T07:58:01;101341.47;;;27.43;48.38
48200;BME280;33990;44.602;10.976;2023-06-24T08:00:30;101338.59;;;27.44;48.68
48200;BME280;33990;44.602;10.976;2023-06-24T08:02:57;101341.97;;;27.46;48.46
48200;BME280;33990;44.602;10.976;2023-06-24T08:05:25;101341.84;;;27.48;47.97
48200;BME280;33990;44.602;10.976;2023-06-24T08:07:53;101340.81;;;27.49;47.44
48200;BME280;33990;44.602;10.976;2023-06-24T08:10:20;101345.59;;;27.47;47.30
48200;BME280;33990;44.602;10.976;2023-06-24T08:12:48;101354.59;;;27.47;47.09
48200;BME280;33990;44.602;10.976;2023-06-24T08:15:15;101347.28;;;27.48;47.47
48200;BME280;33990;44.602;10.976;2023-06-24T08:17:42;101344.38;;;27.49;47.50
48200;BME280;33990;44.602;10.976;2023-06-24T08:20:10;101347.59;;;27.53;48.00
48200;BME280;33990;44.602;10.976;2023-06-24T08:22:38;101355.56;;;27.54;48.09
48200;BME280;33990;44.602;10.976;2023-06-24T08:25:06;101348.09;;;27.56;48.93
48200;BME280;33990;44.602;10.976;2023-06-24T08:27:33;101351.47;;;27.58;48.93
48200;BME280;33990;44.602;10.976;2023-06-24T08:30:00;101348.75;;;27.58;49.48
48200;BME280;33990;44.602;10.976;2023-06-24T08:32:28;101347.75;;;27.59;49.36
48200;BME280;33990;44.602;10.976;2023-06-24T08:34:55;101352.66;;;27.64;49.20
48200;BME280;33990;44.602;10.976;2023-06-24T08:37:23;101349.94;;;27.64;48.78
48200;BME280;33990;44.602;10.976;2023-06-24T08:39:50;101343.66;;;27.64;48.24
48200;BME280;33990;44.602;10.976;2023-06-24T08:42:17;101351.13;;;27.61;47.98
48200;BME280;33990;44.602;10.976;2023-06-24T08:44:45;101345.69;;;27.61;47.98
48200;BME280;33990;44.602;10.976;2023-06-24T08:47:12;101349.44;;;27.60;47.46
48200;BME280;33990;44.602;10.976;2023-06-24T08:49:47;101359.28;;;27.61;47.20
48200;BME280;33990;44.602;10.976;2023-06-24T08:52:16;101345.03;;;27.59;46.33
48200;BME280;33990;44.602;10.976;2023-06-24T08:54:50;101345.69;;;27.61;46.65
48200;BME280;33990;44.602;10.976;2023-06-24T08:57:18;101344.31;;;27.66;47.20
48200;BME280;33990;44.602;10.976;2023-06-24T08:59:46;101344.63;;;27.71;47.60
48200;BME280;33990;44.602;10.976;2023-06-24T09:02:13;101338.88;;;27.74;47.35
48200;BME280;33990;44.602;10.976;2023-06-24T09:04:41;101340.22;;;27.78;47.87
48200;BME280;33990;44.602;10.976;2023-06-24T09:07:09;101339.88;;;27.81;47.53
48200;BME280;33990;44.602;10.976;2023-06-24T09:09:43;101341.56;;;27.82;47.18
48200;BME280;33990;44.602;10.976;2023-06-24T09:12:14;101329.00;;;27.81;47.18
48200;BME280;33990;44.602;10.976;2023-06-24T09:14:48;101335.97;;;27.83;46.94
48200;BME280;33990;44.602;10.976;2023-06-24T09:17:16;101333.59;;;27.80;46.33
48200;BME280;33990;44.602;10.976;2023-06-24T09:19:44;101327.13;;;27.81;46.18
48200;BME280;33990;44.602;10.976;2023-06-24T09:22:11;101324.22;;;27.83;46.17
48200;BME280;33990;44.602;10.976;2023-06-24T09:24:48;101323.03;;;27.85;46.27
48200;BME280;33990;44.602;10.976;2023-06-24T09:27:17;101317.41;;;27.87;46.25
48200;BME280;33990;44.602;10.976;2023-06-24T09:29:47;101317.41;;;27.87;46.51
48200;BME280;33990;44.602;10.976;2023-06-24T09:32:16;101309.22;;;27.87;46.31
48200;BME280;33990;44.602;10.976;2023-06-24T09:34:43;101311.97;;;27.87;46.77
48200;BME280;33990;44.602;10.976;2023-06-24T09:37:21;101310.13;;;27.88;46.67
48200;BME280;33990;44.602;10.976;2023-06-24T09:39:48;101303.78;;;27.87;47.23
48200;BME280;33990;44.602;10.976;2023-06-24T09:42:20;101303.13;;;27.85;46.40
48200;BME280;33990;44.602;10.976;2023-06-24T09:44:55;101300.59;;;27.83;46.16
48200;BME280;33990;44.602;10.976;2023-06-24T09:47:23;101307.72;;;27.84;46.96
48200;BME280;33990;44.602;10.976;2023-06-24T09:49:55;101303.97;;;27.85;47.26
48200;BME280;33990;44.602;10.976;2023-06-24T09:52:23;101301.44;;;27.84;47.19
48200;BME280;33990;44.602;10.976;2023-06-24T09:54:54;101297.69;;;27.85;48.50
48200;BME280;33990;44.602;10.976;2023-06-24T09:57:26;101300.41;;;27.85;48.96
48200;BME280;33990;44.602;10.976;2023-06-24T09:59:54;101303.13;;;27.85;49.19
48200;BME280;33990;44.602;10.976;2023-06-24T10:02:22;101309.22;;;27.87;48.70
48200;BME280;33990;44.602;10.976;2023-06-24T10:04:51;101298.53;;;27.85;47.29
48200;BME280;33990;44.602;10.976;2023-06-24T10:07:19;101300.22;;;27.87;46.77
48200;BME280;33990;44.602;10.976;2023-06-24T10:09:47;101292.06;;;27.87;47.52
48200;BME280;33990;44.602;10.976;2023-06-24T10:12:16;101297.34;;;27.88;47.98
48200;BME280;33990;44.602;10.976;2023-06-24T10:14:43;101291.72;;;27.90;47.31
48200;BME280;33990;44.602;10.976;2023-06-24T10:17:11;101290.69;;;27.91;47.37
48200;BME280;33990;44.602;10.976;2023-06-24T10:19:40;101287.13;;;27.90;46.83
48200;BME280;33990;44.602;10.976;2023-06-24T10:22:09;101286.09;;;27.91;46.82
48200;BME280;33990;44.602;10.976;2023-06-24T10:24:41;101281.69;;;27.90;46.51
48200;BME280;33990;44.602;10.976;2023-06-24T10:27:17;101285.25;;;27.91;46.00
48200;BME280;33990;44.602;10.976;2023-06-24T10:29:46;101285.25;;;27.91;46.08
48200;BME280;33990;44.602;10.976;2023-06-24T10:32:13;101278.59;;;27.93;46.42
48200;BME280;33990;44.602;10.976;2023-06-24T10:37:31;101282.84;;;27.96;46.32
48200;BME280;33990;44.602;10.976;2023-06-24T10:40:00;101285.59;;;27.96;46.03
48200;BME280;33990;44.602;10.976;2023-06-24T10:45:00;101281.63;;;27.98;46.02
48200;BME280;33990;44.602;10.976;2023-06-24T10:47:29;101279.09;;;27.97;45.81
48200;BME280;33990;44.602;10.976;2023-06-24T10:49:57;101278.91;;;27.98;45.06
48200;BME280;33990;44.602;10.976;2023-06-24T10:52:24;101269.72;;;27.99;45.68
48200;BME280;33990;44.602;10.976;2023-06-24T10:54:53;101271.44;;;28.00;46.09
48200;BME280;33990;44.602;10.976;2023-06-24T10:57:22;101272.94;;;28.03;45.32
48200;BME280;33990;44.602;10.976;2023-06-24T10:59:54;101273.63;;;28.05;45.29
48200;BME280;33990;44.602;10.976;2023-06-24T11:02:24;101270.06;;;28.04;44.78
48200;BME280;33990;44.602;10.976;2023-06-24T11:04:55;101264.41;;;28.06;44.31
48200;BME280;33990;44.602;10.976;2023-06-24T11:07:25;101267.63;;;28.09;44.39
48200;BME280;33990;44.602;10.976;2023-06-24T11:09:58;101265.69;;;28.18;42.15
48200;BME280;33990;44.602;10.976;2023-06-24T11:12:27;101264.66;;;28.19;42.80
48200;BME280;33990;44.602;10.976;2023-06-24T11:14:59;101248.31;;;28.19;43.07
48200;BME280;33990;44.602;10.976;2023-06-24T11:17:27;101239.31;;;28.19;43.84
48200;BME280;33990;44.602;10.976;2023-06-24T11:19:55;101249.38;;;28.18;43.85
48200;BME280;33990;44.602;10.976;2023-06-24T11:22:24;101244.13;;;28.17;44.29
48200;BME280;33990;44.602;10.976;2023-06-24T11:24:52;101239.69;;;28.16;44.60
48200;BME280;33990;44.602;10.976;2023-06-24T11:27:29;101233.22;;;28.17;44.44
48200;BME280;33990;44.602;10.976;2023-06-24T11:29:59;101228.81;;;28.16;43.35
48200;BME280;33990;44.602;10.976;2023-06-24T11:32:38;101223.19;;;28.17;43.48
48200;BME280;33990;44.602;10.976;2023-06-24T11:35:08;101227.78;;;28.17;43.39
48200;BME280;33990;44.602;10.976;2023-06-24T11:37:36;101227.78;;;28.17;43.38
48200;BME280;33990;44.602;10.976;2023-06-24T11:40:06;101220.66;;;28.16;42.74
48200;BME280;33990;44.602;10.976;2023-06-24T11:42:38;101210.75;;;28.15;42.67
48200;BME280;33990;44.602;10.976;2023-06-24T11:45:08;101213.31;;;28.16;43.16
48200;BME280;33990;44.602;10.976;2023-06-24T11:47:41;101202.25;;;28.18;42.41
48200;BME280;33990;44.602;10.976;2023-06-24T11:50:09;101209.38;;;28.19;41.63
48200;BME280;33990;44.602;10.976;2023-06-24T11:55:23;101211.09;;;28.20;41.97
48200;BME280;33990;44.602;10.976;2023-06-24T12:00:27;101207.50;;;28.19;41.72
48200;BME280;33990;44.602;10.976;2023-06-24T12:02:57;101201.03;;;28.20;41.81
48200;BME280;33990;44.602;10.976;2023-06-24T12:05:32;101198.81;;;28.24;41.77
48200;BME280;33990;44.602;10.976;2023-06-24T12:08:08;101195.22;;;28.23;41.23
48200;BME280;33990;44.602;10.976;2023-06-24T12:10:37;101197.78;;;28.25;41.34
48200;BME280;33990;44.602;10.976;2023-06-24T12:13:07;101200.50;;;28.25;42.04
48200;BME280;33990;44.602;10.976;2023-06-24T12:15:36;101192.13;;;28.26;41.47
48200;BME280;33990;44.602;10.976;2023-06-24T12:18:03;101194.13;;;28.32;39.97
48200;BME280;33990;44.602;10.976;2023-06-24T12:20:33;101193.09;;;28.33;40.21
48200;BME280;33990;44.602;10.976;2023-06-24T12:23:05;101187.47;;;28.35;40.31
48200;BME280;33990;44.602;10.976;2023-06-24T12:25:32;101191.03;;;28.35;40.21
48200;BME280;33990;44.602;10.976;2023-06-24T12:28:02;101183.91;;;28.34;40.56
48200;BME280;33990;44.602;10.976;2023-06-24T12:30:30;101186.63;;;28.34;40.09
48200;BME280;33990;44.602;10.976;2023-06-24T12:32:59;101179.28;;;28.35;39.52
48200;BME280;33990;44.602;10.976;2023-06-24T12:35:26;101172.88;;;28.36;39.32
48200;BME280;33990;44.602;10.976;2023-06-24T12:37:54;101183.06;;;28.34;39.47
48200;BME280;33990;44.602;10.976;2023-06-24T12:40:22;101181.38;;;28.33;40.11
48200;BME280;33990;44.602;10.976;2023-06-24T12:42:49;101179.50;;;28.33;40.36
48200;BME280;33990;44.602;10.976;2023-06-24T12:45:17;101174.88;;;28.34;40.33
48200;BME280;33990;44.602;10.976;2023-06-24T12:47:44;101177.59;;;28.34;40.93
48200;BME280;33990;44.602;10.976;2023-06-24T12:50:11;101177.59;;;28.34;40.90
48200;BME280;33990;44.602;10.976;2023-06-24T12:52:39;101172.16;;;28.34;41.22
48200;BME280;33990;44.602;10.976;2023-06-24T12:55:07;101176.75;;;28.33;40.97
48200;BME280;33990;44.602;10.976;2023-06-24T12:57:35;101168.00;;;28.46;39.06
48200;BME280;33990;44.602;10.976;2023-06-24T13:00:06;101164.16;;;28.55;38.29
48200;BME280;33990;44.602;10.976;2023-06-24T13:02:35;101166.31;;;28.60;37.92
48200;BME280;33990;44.602;10.976;2023-06-24T13:05:02;101165.13;;;28.63;37.94
48200;BME280;33990;44.602;10.976;2023-06-24T13:07:31;101162.41;;;28.63;37.75
48200;BME280;33990;44.602;10.976;2023-06-24T13:10:00;101163.44;;;28.62;38.16